This demonstration page uses our WeatherBlox Daily Observations layout. Learn more.

41.55636, -103.73856

Hourly Observations for February 16, 2019

Temp ( °F °C ) Dew Point ( °F °C ) Humidity (%) Winds ( mph kmh ) Pressure ( in mb ) Visibility ( mi km ) Precip ( " mm )
12:58 am 00:58 Clear 32 -0.1 24 -4.7 71 71 SE 7 11 29.86 1011 10 16.0934 N/A
1:58 am 01:58 Clear 28 -2 22 -5.8 76 76 S 9 15 29.9 1013 10 16.0934 N/A
2:58 am 02:58 Clear 26 -3.5 20 -6.8 78 78 SSE 10 17 29.9 1013 10 16.0934 N/A
3:58 am 03:58 Clear 24 -4.7 18 -7.8 79 79 S 13 20 29.9 1013 10 16.0934 N/A
4:58 am 04:58 Clear 22 -5.7 17 -8.4 81 81 S 9 15 29.89 1012 10 16.0934 N/A
5:58 am 05:58 Clear 20 -6.4 16 -9 82 82 SSE 7 11 29.84 1010 10 16.0934 N/A
6:58 am 06:58 Clear 20 -6.9 16 -9 85 85 S 9 15 29.73 1007 10 16.0934 N/A
7:58 am 07:58 Clear 22 -5.6 17 -8.6 80 80 SSW 16 26 29.68 1005 10 16.0934 N/A
8:58 am 08:58 Clear 21 -6.1 16 -8.8 81 81 SSW 14 22 29.68 1005 10 16.0934 N/A
9:58 am 09:58 Mostly Clear 24 -4.7 18 -7.9 79 79 S 17 28 29.6 1003 10 16.0934 N/A
10:58 am 10:58 Clear 23 -4.9 17 -8.2 78 78 S 12 19 29.6 1003 10 16.0934 N/A
11:58 am 11:58 Clear 19 -7.2 15 -9.2 86 86 S 8 13 29.61 1003 10 16.0934 N/A
12:58 pm 12:58 Clear 16 -9 13 -10.5 89 89 SW 7 11 29.67 1005 10 16.0934 N/A
1:58 pm 13:58 Sunny 15 -9.2 13 -10.8 88 88 S 12 19 29.65 1004 10 16.0934 N/A
2:58 pm 14:58 Mostly Sunny 24 -4.5 20 -6.8 84 84 W 7 11 29.62 1003 10 16.0934 N/A
3:58 pm 15:58 Sunny 30 -1.3 20 -6.7 67 67 NW 21 33 29.59 1002 10 16.0934 N/A
4:58 pm 16:58 Sunny 31 -0.3 18 -8 56 56 NW 21 33 29.61 1003 10 16.0934 N/A
5:58 pm 17:58 Sunny 32 0.2 16 -8.7 52 52 NNW 15 24 29.61 1003 10 16.0934 N/A
6:58 pm 18:58 Mostly Sunny 36 2.4 17 -8.1 46 46 NNW 25 41 29.58 1002 10 16.0934 N/A
7:58 pm 19:58 Partly Cloudy 34 1.3 21 -6 59 59 N 35 56 29.56 1001 10 16.0934 N/A
8:58 pm 20:58 Mostly Cloudy 32 -0.1 20 -6.4 63 63 N 23 37 29.62 1003 10 16.0934 N/A
9:58 pm 21:58 Mostly Cloudy with Light Rain 31 -0.4 20 -6.6 63 63 N 24 39 29.63 1003 10 16.0934 N/A
10:58 pm 22:58 Windy with Snow Showers Likely 30 -1.1 20 -6.8 66 66 NNW 21 33 29.67 1005 10 16.0934 N/A

Powered by AerisWeather